Latest Weather Observations for Bunbury

IDW60801

Issued at 1:33 pm WST Monday 19 November 2018 (issued every 10 minutes, with the page automatically refreshed every 10 minutes)

About weather observations | Map of weather stations | Latest weather observations for WA | Other Formats
Station Details ID: 009965 Name: BUNBURY Lat: -33.36 Lon: 115.64 Height: 5.2 m
Data from the previous 72 hours. | See also: Recent months at Bunbury
Date/Time
WST
Temp
°C
App
Temp
°C
Dew
Point
°C
Rel
Hum
%
Delta-T
°C
Wind Press
QNH
hPa
Press
MSL
hPa
Rain since
9am
mm
Dir  Spd
km/h
Gust
km/h
Spd
kts
Gust
kts
19/01:30pm 17.0 15.1 7.6 54 4.7 SW 7 13 4 7 1019.9 1019.8 0.0
19/01:00pm 16.2 12.6 8.2 59 4.0 SSW 17 30 9 16 1020.1 1020.0 0.0
19/12:30pm 16.9 13.2 6.1 49 5.3 SW 15 24 8 13 1020.3 1020.2 0.0
19/12:00pm 17.0 12.5 6.8 51 5.0 WSW 20 32 11 17 1020.2 1020.1 0.0
19/11:30am 17.4 14.7 9.1 58 4.3 S 13 22 7 12 1020.3 1020.2 0.0
19/11:00am 15.8 11.0 8.8 63 3.6 SW 24 39 13 21 1020.5 1020.4 0.0
19/10:30am 16.5 13.2 8.0 57 4.3 WSW 15 24 8 13 1020.5 1020.4 0.0
19/10:00am 16.8 13.7 8.8 59 4.1 SW 15 24 8 13 1020.7 1020.6 0.0
19/09:30am 14.8 10.5 7.8 63 3.5 SW 20 35 11 19 1020.4 1020.3 0.0
19/09:00am 16.8 13.0 6.0 49 5.2 WSW 15 24 8 13 1020.1 1020.0 0.0
19/08:30am 16.5 12.8 6.1 50 5.1 SW 15 22 8 12 1020.0 1019.9 0.0
19/08:00am 16.4 14.3 6.5 52 4.8 S 7 13 4 7 1019.9 1019.8 0.0
19/07:30am 14.4 11.5 6.5 59 3.8 S 11 15 6 8 1019.8 1019.7 0.0
19/07:00am 14.4 11.8 6.3 58 3.9 S 9 13 5 7 1019.6 1019.5 0.0
19/06:30am 14.9 13.6 7.5 61 3.7 S 4 7 2 4 1019.2 1019.1 0.0
19/06:00am 13.5 12.9 7.5 67 2.9 CALM 0 2 0 1 1019.0 1018.9 0.0
19/05:30am 12.4 10.8 6.5 67 2.8 SSE 4 6 2 3 1018.7 1018.6 0.0
19/05:00am 12.4 10.5 6.5 67 2.8 S 6 6 3 3 1018.5 1018.4 0.0
19/04:30am 12.6 10.7 6.6 67 2.9 S 6 7 3 4 1018.3 1018.2 0.0
19/04:00am 12.6 11.2 7.1 69 2.6 S 4 6 2 3 1018.0 1017.9 0.0
19/03:30am 12.1 11.5 7.2 72 2.4 CALM 0 0 0 0 1017.8 1017.7 0.0
19/03:00am 12.3 11.7 7.2 71 2.5 CALM 0 2 0 1 1017.6 1017.5 0.0
19/02:30am 12.3 10.9 7.4 72 2.4 SSE 4 6 2 3 1017.5 1017.4 0.0
19/02:00am 12.5 11.8 6.8 68 2.7 CALM 0 0 0 0 1017.3 1017.2 0.0
19/01:30am 12.7 10.6 6.7 67 2.9 SSE 7 9 4 5 1017.4 1017.3 0.0
19/01:00am 12.6 10.3 7.3 70 2.6 S 9 15 5 8 1017.6 1017.5 0.0
19/12:30am 12.9 11.3 8.8 76 2.1 S 7 11 4 6 1017.9 1017.8 0.0
19/12:00am 12.7 10.7 8.8 77 1.9 S 9 11 5 6 1017.9 1017.8 0.0
 
Date/Time
WST
Temp
°C
App
Temp
°C
Dew
Point
°C
Rel
Hum
%
Delta-T
°C
Wind Press
QNH
hPa
Press
MSL
hPa
Rain since
9am
mm
Dir  Spd
km/h
Gust
km/h
Spd
kts
Gust
kts
18/11:30pm 12.8 11.3 9.1 78 1.9 S 7 9 4 5 1017.9 1017.8 0.0
18/11:00pm 12.7 11.2 9.2 79 1.8 S 7 9 4 5 1017.8 1017.7 0.0
18/10:30pm 12.6 11.3 9.2 80 1.7 SSW 6 7 3 4 1017.8 1017.7 0.0
18/10:00pm 12.3 10.8 9.0 80 1.7 S 7 9 4 5 1017.8 1017.7 0.0
18/09:30pm 12.6 11.2 8.9 78 1.9 S 6 7 3 4 1017.7 1017.6 0.0
18/09:00pm 13.1 11.5 8.8 75 2.2 S 7 11 4 6 1017.5 1017.4 0.0
18/08:30pm 13.8 11.9 9.0 73 2.4 S 9 13 5 7 1017.1 1017.0 0.0
18/08:00pm 14.7 11.7 9.3 70 2.8 S 15 20 8 11 1016.5 1016.4 0.0
18/07:30pm 15.0 12.1 9.8 71 2.7 S 15 24 8 13 1016.2 1016.1 0.0
18/07:00pm 15.5 12.4 10.3 71 2.7 SSE 17 26 9 14 1015.9 1015.8 0.0
18/06:30pm 16.2 14.0 10.7 70 2.9 S 13 20 7 11 1015.4 1015.3 0.0
18/06:00pm 16.7 13.3 11.2 70 3.0 S 20 32 11 17 1015.0 1014.9 0.0
18/05:30pm 17.5 14.5 11.8 69 3.1 S 19 30 10 16 1014.3 1014.2 0.0
18/05:00pm 18.3 14.6 11.6 65 3.7 S 22 33 12 18 1013.6 1013.6 0.0
18/04:30pm 18.6 15.2 12.4 67 3.5 SSW 22 39 12 21 1013.5 1013.5 0.0
18/04:00pm 19.4 16.4 12.7 65 3.8 SSW 20 37 11 20 1013.1 1013.1 0.0
18/03:30pm 21.4 18.7 13.6 61 4.5 SSW 20 28 11 15 1012.6 1012.6 0.0
18/03:00pm 20.2 17.3 13.9 67 3.6 WSW 22 32 12 17 1012.6 1012.6 0.0
18/02:30pm 20.7 18.3 14.4 67 3.7 WSW 20 32 11 17 1012.6 1012.6 0.0
18/02:00pm 21.8 19.8 15.6 68 3.7 W 20 30 11 16 1012.6 1012.6 0.0
18/01:30pm 20.9 19.4 15.2 70 3.4 WNW 17 24 9 13 1012.9 1012.9 0.0
18/01:00pm 18.9 16.4 14.0 73 2.8 NW 20 32 11 17 1013.0 1013.0 0.0
18/12:30pm 20.3 18.0 14.2 68 3.5 WNW 19 24 10 13 1013.1 1013.1 0.0
18/12:00pm 21.7 20.1 15.1 66 3.9 NW 17 26 9 14 1013.2 1013.2 0.0
18/11:30am 20.6 18.4 14.5 68 3.6 WNW 19 26 10 14 1013.3 1013.3 0.0
18/11:00am 20.3 18.9 14.4 69 3.4 WNW 15 24 8 13 1013.5 1013.5 0.0
18/10:30am 19.4 17.4 14.0 71 3.1 WNW 17 22 9 12 1013.7 1013.7 0.0
18/10:00am 18.9 17.5 13.5 71 3.1 WNW 13 20 7 11 1013.7 1013.7 0.0
18/09:30am 18.8 18.2 14.5 76 2.5 WNW 11 17 6 9 1013.6 1013.6 0.0
18/09:00am 16.7 14.4 13.0 79 2.1 W 17 26 9 14 1013.6 1013.6 0.0
18/08:30am 18.6 17.1 11.9 65 3.7 WSW 11 19 6 10 1013.4 1013.4 0.0
18/08:00am 18.7 16.6 11.3 62 4.0 W 13 20 7 11 1013.2 1013.2 0.0
18/07:30am 18.8 17.0 10.9 60 4.3 W 11 17 6 9 1013.0 1013.0 0.0
18/07:00am 19.4 16.8 10.7 57 4.7 W 15 24 8 13 1012.8 1012.8 0.0
18/06:30am 17.9 14.9 10.8 63 3.8 WSW 17 24 9 13 1012.6 1012.6 0.0
18/06:00am 17.3 15.4 11.8 70 3.0 WSW 13 22 7 12 1012.4 1012.4 0.0
18/05:30am 17.1 15.2 11.8 71 2.9 SW 13 22 7 12 1012.1 1012.1 0.0
18/05:00am 17.2 15.5 12.3 73 2.7 WSW 13 22 7 12 1011.8 1011.8 0.0
18/04:30am 17.5 15.4 11.3 67 3.4 WSW 13 20 7 11 1011.4 1011.4 0.0
18/04:00am 17.5 16.8 11.3 67 3.4 WSW 6 9 3 5 1011.2 1011.2 0.0
18/03:30am 17.4 16.3 11.9 70 3.0 W 9 15 5 8 1011.3 1011.3 0.0
18/03:00am 17.3 16.1 11.6 69 3.1 W 9 17 5 9 1011.3 1011.3 0.0
18/02:30am 17.1 16.3 11.2 68 3.2 W 6 9 3 5 1011.3 1011.3 0.0
18/02:00am 17.2 16.3 11.2 68 3.2 WSW 7 11 4 6 1011.4 1011.4 0.0
18/01:30am 17.1 16.2 11.2 68 3.2 WSW 7 13 4 7 1011.6 1011.6 0.0
18/01:00am 16.9 15.6 11.2 69 3.1 WSW 9 17 5 9 1011.9 1011.9 0.0
18/12:30am 16.9 14.6 11.8 72 2.8 WSW 15 20 8 11 1012.0 1012.0 0.0
18/12:00am 16.8 16.0 11.7 72 2.8 WSW 7 13 4 7 1012.2 1012.2 0.0
 
Date/Time
WST
Temp
°C
App
Temp
°C
Dew
Point
°C
Rel
Hum
%
Delta-T
°C
Wind Press
QNH
hPa
Press
MSL
hPa
Rain since
9am
mm
Dir  Spd
km/h
Gust
km/h
Spd
kts
Gust
kts
17/11:30pm 17.0 15.9 12.1 73 2.7 SW 9 15 5 8 1012.2 1012.2 0.0
17/11:00pm 17.0 15.2 12.1 73 2.7 WSW 13 20 7 11 1012.4 1012.4 0.0
17/10:30pm 16.8 15.9 12.5 76 2.4 SW 9 17 5 9 1012.5 1012.5 0.0
17/10:00pm 16.9 15.3 12.8 77 2.3 WSW 13 20 7 11 1012.6 1012.6 0.0
17/09:30pm 17.0 15.4 12.9 77 2.3 SW 13 20 7 11 1012.6 1012.6 0.0
17/09:00pm 17.2 15.8 13.3 78 2.2 WSW 13 19 7 10 1012.5 1012.5 0.0
17/08:30pm 17.3 16.3 13.4 78 2.2 WSW 11 17 6 9 1012.3 1012.3 0.0
17/08:00pm 17.6 16.8 13.9 79 2.1 WSW 11 22 6 12 1012.0 1012.0 0.0
17/07:30pm 17.6 16.8 14.1 80 2.0 WSW 11 20 6 11 1012.0 1012.0 0.0
17/07:00pm 18.0 16.6 14.5 80 2.0 W 15 24 8 13 1011.9 1011.9 0.0
17/06:30pm 18.8 17.5 14.9 78 2.3 W 15 22 8 12 1011.7 1011.7 0.0
17/06:00pm 19.0 17.9 15.3 79 2.2 W 15 24 8 13 1011.5 1011.5 0.0
17/05:30pm 19.9 19.2 15.5 76 2.6 W 13 20 7 11 1011.3 1011.3 0.0
17/05:00pm 20.5 19.7 16.1 76 2.6 WNW 15 20 8 11 1011.1 1011.1 0.0
17/04:30pm 20.5 19.5 16.5 78 2.4 W 17 26 9 14 1010.9 1010.9 0.0
17/04:00pm 20.5 19.2 15.7 74 2.9 W 17 26 9 14 1010.9 1010.9 0.0
17/03:30pm 21.6 19.7 16.6 73 3.0 W 22 32 12 17 1010.7 1010.7 0.0
17/03:00pm 21.0 18.4 16.0 73 3.0 W 24 33 13 18 1010.5 1010.5 0.0
17/02:30pm 22.3 20.4 16.8 71 3.4 NW 22 32 12 17 1010.3 1010.3 0.0
17/02:00pm 22.6 21.2 16.6 69 3.7 NW 19 26 10 14 1010.0 1010.0 0.0
17/01:30pm 22.6 21.1 16.2 67 3.9 NW 19 26 10 14 1010.1 1010.1 0.0
17/01:00pm 23.5 22.6 15.8 62 4.7 NW 15 22 8 12 1010.0 1010.0 0.0
17/12:30pm 23.8 23.4 16.1 62 4.7 WNW 13 17 7 9 1009.9 1009.9 0.0
17/12:00pm 23.4 23.6 16.7 66 4.1 WNW 11 17 6 9 1010.2 1010.2 0.0
17/11:30am 23.0 22.2 17.0 69 3.7 NW 17 22 9 12 1010.6 1010.6 0.0
17/11:00am 22.6 21.8 17.1 71 3.4 NW 17 24 9 13 1010.7 1010.7 0.0
17/10:30am 22.3 21.6 16.3 69 3.6 NW 15 22 8 12 1010.6 1010.6 0.0
17/10:00am 22.8 21.3 15.4 63 4.4 NW 17 22 9 12 1011.0 1011.0 0.0
17/09:30am 22.7 21.0 14.8 61 4.7 N 17 24 9 13 1010.5 1010.5 0.0
17/09:00am 23.5 22.3 15.0 59 5.1 N 15 20 8 11 1010.4 1010.4 0.0
17/08:30am 22.1 22.6 15.0 64 4.2 NNE 6 9 3 5 1010.2 1010.2 0.0
17/08:00am 21.6 21.9 15.0 66 3.9 NNE 7 11 4 6 1010.2 1010.2 0.0
17/07:30am 20.6 21.2 15.4 72 3.1 ENE 6 9 3 5 1010.1 1010.1 0.0
17/07:00am 19.1 19.6 15.0 77 2.4 E 6 9 3 5 1010.4 1010.4 0.0
17/06:30am 18.0 18.2 14.3 79 2.1 ESE 6 9 3 5 1010.3 1010.3 0.0
17/06:00am 18.1 18.1 14.2 78 2.2 ESE 7 13 4 7 1010.4 1010.4 0.0
17/05:30am 17.8 17.4 14.1 79 2.1 E 9 13 5 7 1010.2 1010.2 0.0
17/05:00am 17.1 17.4 13.4 79 2.1 ESE 4 7 2 4 1010.1 1010.1 0.0
17/04:30am 17.4 17.3 13.3 77 2.3 ESE 6 9 3 5 1009.9 1009.9 0.0
17/04:00am 17.8 17.7 13.3 75 2.5 SE 6 9 3 5 1009.8 1009.8 0.0
17/03:30am 18.1 17.8 13.4 74 2.7 SSE 7 13 4 7 1009.8 1009.8 0.0
17/03:00am 18.2 17.9 13.3 73 2.8 SSW 7 9 4 5 1010.1 1010.1 0.0
17/02:30am 18.3 18.5 13.2 72 2.9 SE 4 6 2 3 1009.9 1009.9 0.0
17/02:00am 19.0 19.3 13.4 70 3.2 SE 4 6 2 3 1010.2 1010.2 0.0
17/01:30am 19.6 19.6 13.5 68 3.5 ESE 6 7 3 4 1010.3 1010.3 0.0
17/01:00am 20.2 19.6 13.6 66 3.8 ESE 9 13 5 7 1010.7 1010.7 0.0
17/12:30am 20.6 20.0 13.6 64 4.0 SE 9 15 5 8 1011.0 1011.0 0.0
17/12:00am 21.3 20.4 13.7 62 4.4 ESE 11 15 6 8 1011.2 1011.2 0.0
 
Date/Time
WST
Temp
°C
App
Temp
°C
Dew
Point
°C
Rel
Hum
%
Delta-T
°C
Wind Press
QNH
hPa
Press
MSL
hPa
Rain since
9am
mm
Dir  Spd
km/h
Gust
km/h
Spd
kts
Gust
kts
16/11:30pm 21.5 21.0 13.9 62 4.4 SE 9 17 5 9 1011.4 1011.4 0.0
16/11:00pm 22.1 22.0 14.0 60 4.7 SE 7 9 4 5 1011.9 1011.9 0.0
16/10:30pm 22.6 22.5 13.9 58 5.1 ESE 7 11 4 6 1012.2 1012.2 0.0
16/10:00pm 22.8 22.9 13.8 57 5.2 ESE 6 9 3 5 1012.4 1012.4 0.0
16/09:30pm 22.8 22.2 13.6 56 5.3 SE 9 13 5 7 1012.6 1012.6 0.0
16/09:00pm 23.3 22.7 13.5 54 5.7 SE 9 13 5 7 1012.5 1012.5 0.0
16/08:30pm 24.3 23.6 14.4 54 5.9 SSE 11 17 6 9 1012.1 1012.1 0.0
16/08:00pm 22.4 23.3 16.2 68 3.8 SSW 6 7 3 4 1011.6 1011.6 0.0
16/07:30pm 23.4 24.1 16.2 64 4.4 SSW 7 9 4 5 1011.7 1011.7 0.0
16/07:00pm 24.4 25.1 15.6 58 5.3 SW 6 9 3 5 1011.8 1011.8 0.0
16/06:30pm 25.9 25.9 15.3 52 6.4 SW 9 13 5 7 1011.7 1011.7 0.0
16/06:00pm 27.4 26.7 14.4 45 7.8 SW 11 15 6 8 1011.6 1011.6 0.0
16/05:30pm 29.8 30.2 14.7 39 9.2 SSW 6 9 3 5 1011.8 1011.8 0.0
16/05:00pm 30.9 30.9 14.1 36 10.2 SE 7 15 4 8 1012.0 1012.0 0.0
16/04:30pm 29.8 29.4 14.0 38 9.5 SE 9 13 5 7 1012.2 1012.2 0.0
16/04:00pm 29.1 29.1 15.2 42 8.5 SW 9 17 5 9 1012.5 1012.5 0.0
16/03:30pm 30.7 29.6 13.0 33 10.5 SE 11 17 6 9 1012.6 1012.6 0.0
16/03:00pm 31.2 31.0 13.5 34 10.6 SE 7 13 4 7 1012.9 1012.9 0.0
16/02:30pm 29.8 29.1 13.1 36 9.9 E 9 17 5 9 1013.1 1013.1 0.0
16/02:00pm 29.6 29.1 13.8 38 9.5 E 9 15 5 8 1013.6 1013.6 0.0

Other Formats:

Comma delimited format used in spreadsheet applications
http://www.bom.gov.au/fwo/IDW60801/IDW60801.94604.axf

JavaScript Object Notation format (JSON) in row-major order
http://www.bom.gov.au/fwo/IDW60801/IDW60801.94604.json